Time;durP1;ratioP1;P1;durP2;ratioP2;P2;SDS_P1;SDS_P2;PMS_P1;PMS_P2;Temp;Humidity;BMP_temperature;BMP_pressure;BME280_temperature;BME280_humidity;BME280_pressure;Samples;Min_cycle;Max_cycle;Signal;HPM_P1;HPM_P2
2020/12/13 00:00:11;;;;;;;46.47;24.92;;;8.00;99.90;;;;;;4994200;28;20049;-69
2020/12/13 00:02:37;;;;;;;53.40;26.00;;;7.80;99.90;;;;;;4992692;28;20027;-69
2020/12/13 00:05:03;;;;;;;53.70;25.48;;;7.90;99.90;;;;;;4992693;28;20045;-71
2020/12/13 00:07:29;;;;;;;51.05;26.50;;;7.80;99.90;;;;;;4991348;28;20121;-70
2020/12/13 00:09:55;;;;;;;48.40;24.90;;;7.90;99.90;;;;;;4991610;28;20193;-71
2020/12/13 00:12:21;;;;;;;47.72;24.50;;;8.00;99.90;;;;;;4992875;28;20057;-70
2020/12/13 00:14:46;;;;;;;50.45;25.35;;;7.90;99.90;;;;;;4992476;28;20381;-68
2020/12/13 00:17:12;;;;;;;47.60;25.27;;;8.00;99.90;;;;;;4992535;28;20031;-70
2020/12/13 00:19:37;;;;;;;49.95;24.65;;;7.90;99.90;;;;;;4992484;28;20034;-71
2020/12/13 00:22:03;;;;;;;44.58;23.75;;;7.90;99.90;;;;;;4992045;28;20372;-71
2020/12/13 00:24:29;;;;;;;52.38;24.58;;;7.90;99.90;;;;;;4992092;28;20026;-69
2020/12/13 00:26:55;;;;;;;45.63;23.20;;;7.90;99.90;;;;;;4993733;28;20026;-70
2020/12/13 00:29:20;;;;;;;47.85;24.33;;;8.00;99.90;;;;;;4992229;28;20042;-69
2020/12/13 00:31:49;;;;;;;48.55;24.17;;;8.00;99.90;;;;;;4992042;28;20038;-70
2020/12/13 00:34:15;;;;;;;47.42;24.52;;;8.20;99.90;;;;;;4992121;28;20052;-70
2020/12/13 00:36:41;;;;;;;56.25;24.10;;;8.10;99.90;;;;;;4992394;28;20034;-71
2020/12/13 00:39:06;;;;;;;50.92;24.67;;;8.00;99.90;;;;;;4993313;28;20387;-70
2020/12/13 00:41:32;;;;;;;48.70;24.05;;;8.00;99.90;;;;;;4991821;28;20597;-71
2020/12/13 00:43:58;;;;;;;53.50;24.55;;;8.10;99.90;;;;;;4991746;28;20121;-70
2020/12/13 00:46:24;;;;;;;51.05;25.02;;;8.20;99.90;;;;;;4991880;28;20376;-69
2020/12/13 00:48:50;;;;;;;45.60;23.73;;;8.10;99.90;;;;;;4991973;28;20053;-72
2020/12/13 00:51:22;;;;;;;47.63;24.08;;;8.10;99.90;;;;;;4993310;28;20022;-70
2020/12/13 00:53:48;;;;;;;49.25;26.13;;;8.10;99.90;;;;;;4991777;28;20054;-70
2020/12/13 00:56:14;;;;;;;55.58;24.55;;;8.00;99.90;;;;;;4991206;28;20045;-70
2020/12/13 00:58:39;;;;;;;46.40;23.83;;;8.00;99.90;;;;;;4990716;28;20038;-68
2020/12/13 01:01:05;;;;;;;46.58;23.88;;;8.00;99.90;;;;;;4990173;28;20041;-71
2020/12/13 01:03:31;;;;;;;51.22;24.08;;;8.00;99.90;;;;;;4991842;28;20121;-71
2020/12/13 01:05:56;;;;;;;50.90;24.98;;;8.00;99.90;;;;;;4992735;28;20338;-70
2020/12/13 01:08:22;;;;;;;51.28;24.63;;;7.90;99.90;;;;;;4991591;28;20045;-71
2020/12/13 01:10:47;;;;;;;48.47;24.83;;;8.10;99.90;;;;;;4991134;28;20396;-71
2020/12/13 01:13:13;;;;;;;45.85;23.20;;;8.10;99.90;;;;;;4991257;28;20425;-70
2020/12/13 01:15:39;;;;;;;49.97;23.42;;;8.20;99.90;;;;;;4991274;28;20068;-72
2020/12/13 01:18:04;;;;;;;53.90;24.60;;;8.10;99.90;;;;;;4992747;28;20116;-69
2020/12/13 01:20:30;;;;;;;51.95;26.98;;;8.10;99.90;;;;;;4991332;28;20038;-70
2020/12/13 01:22:55;;;;;;;46.42;23.67;;;8.10;99.90;;;;;;4990295;28;20048;-71
2020/12/13 01:25:21;;;;;;;47.05;23.52;;;8.00;99.90;;;;;;4990004;28;20089;-70
2020/12/13 01:27:47;;;;;;;50.53;23.85;;;7.90;99.90;;;;;;4991233;28;20031;-70
2020/12/13 01:30:12;;;;;;;52.92;25.20;;;7.90;99.90;;;;;;4991893;28;20395;-70
2020/12/13 01:32:39;;;;;;;50.88;24.23;;;7.90;99.90;;;;;;4990813;28;20464;-69
2020/12/13 01:35:07;;;;;;;49.03;23.75;;;8.00;99.90;;;;;;4991350;28;20030;-71
2020/12/13 01:37:33;;;;;;;44.50;23.65;;;8.00;99.90;;;;;;4991075;28;20034;-70
2020/12/13 01:39:58;;;;;;;47.65;23.77;;;8.00;99.90;;;;;;4990843;28;20490;-70
2020/12/13 01:42:24;;;;;;;48.55;23.95;;;8.10;99.90;;;;;;4990614;28;20026;-70
2020/12/13 01:44:49;;;;;;;49.40;24.27;;;7.90;99.90;;;;;;4992631;28;20022;-68
2020/12/13 01:47:18;;;;;;;45.72;23.67;;;7.90;99.90;;;;;;4989607;28;20057;-70
2020/12/13 01:49:45;;;;;;;;;;;7.90;99.90;;;;;;4991377;28;20436;-72
2020/12/13 01:55:09;;;;;;;54.03;23.90;;;7.90;99.90;;;;;;4990946;28;20058;-70
2020/12/13 01:57:37;;;;;;;58.08;26.02;;;8.00;99.90;;;;;;4990810;28;20048;-69
2020/12/13 02:00:05;;;;;;;46.72;23.83;;;7.90;99.90;;;;;;4992190;28;20069;-68
2020/12/13 02:02:35;;;;;;;55.20;26.30;;;7.90;99.90;;;;;;4990684;28;20041;-70
2020/12/13 02:05:03;;;;;;;45.75;24.25;;;7.90;99.90;;;;;;4990938;28;20444;-68
2020/12/13 02:07:29;;;;;;;;;;;8.00;99.90;;;;;;4982383;28;20484;-70
2020/12/13 02:09:55;;;;;;;47.55;23.25;;;8.10;99.90;;;;;;4975887;28;20363;-71
2020/12/13 02:12:21;;;;;;;52.42;24.08;;;8.00;99.90;;;;;;4996203;28;20096;-69
2020/12/13 02:14:46;;;;;;;47.95;23.45;;;8.00;99.90;;;;;;4995070;28;20394;-69
2020/12/13 02:17:12;;;;;;;51.40;24.45;;;8.10;99.90;;;;;;4994583;28;20039;-70
2020/12/13 02:19:38;;;;;;;49.63;24.23;;;8.10;99.90;;;;;;4994696;28;20049;-69
2020/12/13 02:22:12;;;;;;;49.92;24.92;;;8.10;99.90;;;;;;4994606;28;20042;-71
2020/12/13 02:24:38;;;;;;;52.78;25.27;;;8.10;99.90;;;;;;4994532;28;20026;-70
2020/12/13 02:27:08;;;;;;;53.22;24.67;;;8.20;99.90;;;;;;4995853;28;20038;-70
2020/12/13 02:29:35;;;;;;;59.40;24.23;;;8.10;99.90;;;;;;4993116;28;20121;-70
2020/12/13 02:32:02;;;;;;;55.15;24.65;;;8.00;99.90;;;;;;4994136;28;20049;-70
2020/12/13 02:34:28;;;;;;;52.53;25.85;;;8.00;99.90;;;;;;4994178;28;20038;-69
2020/12/13 02:36:54;;;;;;;55.95;24.92;;;7.90;99.90;;;;;;4994474;28;20033;-69
2020/12/13 02:39:19;;;;;;;47.78;25.02;;;7.80;99.90;;;;;;4995508;28;20040;-70
2020/12/13 02:42:01;;;;;;;58.13;25.67;;;7.80;99.90;;;;;;4994497;28;20093;-69
2020/12/13 02:44:27;;;;;;;48.60;24.50;;;7.80;99.90;;;;;;4993118;28;20036;-70
2020/12/13 02:46:53;;;;;;;52.78;24.60;;;7.90;99.90;;;;;;4993988;28;20042;-70
2020/12/13 02:49:18;;;;;;;46.30;24.40;;;7.90;99.90;;;;;;4993831;28;20057;-70
2020/12/13 02:51:44;;;;;;;49.17;24.45;;;7.90;99.90;;;;;;4994144;28;20393;-68
2020/12/13 02:54:10;;;;;;;54.42;26.38;;;7.80;99.90;;;;;;4995451;28;20054;-70
2020/12/13 02:56:40;;;;;;;48.35;23.88;;;7.90;99.90;;;;;;4993976;28;20046;-70
2020/12/13 02:59:06;;;;;;;56.67;24.65;;;8.00;99.90;;;;;;4994048;28;20035;-69
2020/12/13 03:01:31;;;;;;;52.08;24.02;;;7.90;99.90;;;;;;4993835;28;20041;-69
2020/12/13 03:03:57;;;;;;;51.10;25.25;;;7.80;99.90;;;;;;4993460;28;20121;-70
2020/12/13 03:06:22;;;;;;;54.65;25.42;;;7.90;99.90;;;;;;4993246;28;20030;-68
2020/12/13 03:08:48;;;;;;;48.33;22.45;;;8.00;99.90;;;;;;4995141;28;20453;-70
2020/12/13 03:11:19;;;;;;;56.08;26.33;;;8.10;99.90;;;;;;4993636;28;20049;-69
2020/12/13 03:13:45;;;;;;;55.45;23.85;;;8.10;99.90;;;;;;4993276;28;20043;-70
2020/12/13 03:16:11;;;;;;;60.58;25.67;;;8.10;99.90;;;;;;4992693;28;20144;-70
2020/12/13 03:18:36;;;;;;;49.78;23.73;;;8.10;99.90;;;;;;4993667;28;20109;-71
2020/12/13 03:21:02;;;;;;;54.00;23.58;;;8.10;99.90;;;;;;4994923;28;20034;-69
2020/12/13 03:23:27;;;;;;;49.40;23.52;;;8.00;99.90;;;;;;4992322;28;20424;-69
2020/12/13 03:25:53;;;;;;;52.97;24.88;;;7.90;99.90;;;;;;4993353;28;20583;-71
2020/12/13 03:28:19;;;;;;;53.53;25.02;;;7.90;99.90;;;;;;4993515;28;20030;-70
2020/12/13 03:30:44;;;;;;;50.00;23.77;;;8.10;99.90;;;;;;4992415;28;20034;-71
2020/12/13 03:33:10;;;;;;;53.35;23.98;;;8.10;99.90;;;;;;4994691;28;20177;-70
2020/12/13 03:35:36;;;;;;;51.92;23.58;;;8.10;99.90;;;;;;4992940;28;20073;-69
2020/12/13 03:38:01;;;;;;;53.00;24.58;;;8.00;99.90;;;;;;4993076;28;20040;-70
2020/12/13 03:40:27;;;;;;;57.95;25.27;;;8.00;99.90;;;;;;4992693;28;20046;-70
2020/12/13 03:42:53;;;;;;;55.25;25.90;;;7.90;99.90;;;;;;4992870;28;20479;-70
2020/12/13 03:45:18;;;;;;;51.92;25.90;;;8.00;99.90;;;;;;4994332;28;20018;-70
2020/12/13 03:47:44;;;;;;;57.97;25.90;;;7.90;99.90;;;;;;4992668;28;20039;-70
2020/12/13 03:50:09;;;;;;;59.17;25.80;;;8.10;99.90;;;;;;4993003;28;20044;-69
2020/12/13 03:52:35;;;;;;;55.13;25.42;;;8.10;99.90;;;;;;4992890;28;20056;-71
2020/12/13 03:55:01;;;;;;;57.25;26.02;;;8.00;99.90;;;;;;4992978;28;20034;-70
2020/12/13 03:57:26;;;;;;;56.72;25.50;;;7.90;99.90;;;;;;4992527;28;20035;-70
2020/12/13 03:59:52;;;;;;;59.72;25.42;;;7.90;99.90;;;;;;4994416;28;20050;-69
2020/12/13 04:02:17;;;;;;;53.90;25.98;;;7.90;99.90;;;;;;4992712;28;20049;-69
2020/12/13 04:04:43;;;;;;;52.75;23.98;;;7.90;99.90;;;;;;4992597;28;20046;-71
2020/12/13 04:07:09;;;;;;;53.97;25.00;;;7.80;99.90;;;;;;4992305;28;20038;-70
2020/12/13 04:09:34;;;;;;;53.20;25.17;;;7.90;99.90;;;;;;4992436;28;20071;-70
2020/12/13 04:12:00;;;;;;;53.58;25.33;;;7.90;99.90;;;;;;4993971;28;20100;-70
2020/12/13 04:14:26;;;;;;;59.10;24.52;;;8.00;99.90;;;;;;4992310;28;20034;-70
2020/12/13 04:16:51;;;;;;;54.70;24.85;;;8.10;99.90;;;;;;4992519;28;20334;-70
2020/12/13 04:19:17;;;;;;;54.60;25.38;;;8.10;99.90;;;;;;4992447;28;20026;-70
2020/12/13 04:21:43;;;;;;;55.40;24.58;;;8.00;99.90;;;;;;4992131;28;20083;-69
2020/12/13 04:24:08;;;;;;;65.15;27.83;;;8.00;99.90;;;;;;4993736;28;20507;-70
2020/12/13 04:26:34;;;;;;;56.08;24.95;;;8.00;99.90;;;;;;4992385;28;20056;-70
2020/12/13 04:29:00;;;;;;;49.42;24.23;;;7.80;99.90;;;;;;4991190;28;20053;-70
2020/12/13 04:31:25;;;;;;;53.65;25.63;;;7.90;99.90;;;;;;4991900;28;20022;-70
2020/12/13 04:33:51;;;;;;;55.95;24.90;;;8.00;99.90;;;;;;4992041;28;20475;-70
2020/12/13 04:36:17;;;;;;;56.08;26.70;;;8.10;99.90;;;;;;4993472;28;20025;-70
2020/12/13 04:38:43;;;;;;;57.60;24.40;;;8.10;99.90;;;;;;4992051;28;20400;-69
2020/12/13 04:41:09;;;;;;;55.38;25.60;;;8.10;99.90;;;;;;4991854;28;20038;-70
2020/12/13 04:43:34;;;;;;;56.92;24.67;;;8.00;99.90;;;;;;4991703;28;20048;-68
2020/12/13 04:46:00;;;;;;;52.40;24.60;;;8.00;99.90;;;;;;4991875;28;20042;-70
2020/12/13 04:48:26;;;;;;;50.33;23.33;;;8.10;99.90;;;;;;4991944;28;20030;-69
2020/12/13 04:50:52;;;;;;;52.58;24.33;;;8.10;99.90;;;;;;4993303;28;20014;-70
2020/12/13 04:53:19;;;;;;;57.58;26.83;;;8.00;99.90;;;;;;4990596;28;20057;-69
2020/12/13 04:55:58;;;;;;;54.25;25.02;;;7.90;99.90;;;;;;4990892;28;20052;-68
2020/12/13 04:58:26;;;;;;;55.88;24.38;;;8.00;99.90;;;;;;4991516;28;20027;-70
2020/12/13 05:00:57;;;;;;;56.30;26.25;;;8.00;99.90;;;;;;4991262;28;20066;-70
2020/12/13 05:03:24;;;;;;;52.08;24.52;;;8.00;99.90;;;;;;4991309;28;20068;-69
2020/12/13 05:05:50;;;;;;;53.88;24.58;;;8.00;99.90;;;;;;4992562;28;20030;-69
2020/12/13 05:08:16;;;;;;;56.85;24.83;;;7.90;99.90;;;;;;4990557;28;20369;-70
2020/12/13 05:10:42;;;;;;;59.00;25.13;;;7.90;99.90;;;;;;4990439;28;20125;-69
2020/12/13 05:13:09;;;;;;;56.47;24.80;;;8.00;99.90;;;;;;4991354;28;20524;-70
2020/12/13 05:15:36;;;;;;;53.38;25.67;;;7.90;99.90;;;;;;4991250;28;20054;-70
2020/12/13 05:18:03;;;;;;;56.83;25.20;;;7.90;99.90;;;;;;4992883;28;20022;-71
2020/12/13 05:20:28;;;;;;;47.88;23.65;;;7.80;99.90;;;;;;4991518;28;20037;-69
2020/12/13 05:22:55;;;;;;;52.00;23.73;;;7.90;99.90;;;;;;4991363;28;20038;-70
2020/12/13 05:25:29;;;;;;;50.03;23.90;;;7.90;99.90;;;;;;4991474;28;20054;-69
2020/12/13 05:27:58;;;;;;;60.30;27.02;;;8.00;99.90;;;;;;4991449;28;20034;-70
2020/12/13 05:30:31;;;;;;;52.60;24.45;;;7.90;99.90;;;;;;4990817;28;20018;-70
2020/12/13 05:33:01;;;;;;;58.45;25.27;;;7.90;99.90;;;;;;4991552;28;20023;-70
2020/12/13 05:35:28;;;;;;;53.65;24.48;;;7.90;99.90;;;;;;4991240;28;20038;-69
2020/12/13 05:37:54;;;;;;;57.47;24.17;;;7.90;99.90;;;;;;4990904;28;20041;-70
2020/12/13 05:40:21;;;;;;;53.67;24.67;;;7.90;99.90;;;;;;4989794;28;20380;-68
2020/12/13 05:42:55;;;;;;;52.25;25.65;;;7.90;99.90;;;;;;4989778;28;20577;-69
2020/12/13 05:53:02;;;;;;;57.38;24.05;;;7.90;99.90;;;;;;4990794;28;20050;-69
2020/12/13 05:55:28;;;;;;;46.97;23.65;;;7.90;99.90;;;;;;4991027;28;20105;-70
2020/12/13 05:57:54;;;;;;;54.42;23.85;;;7.90;99.90;;;;;;4990898;28;20121;-70
2020/12/13 06:00:20;;;;;;;50.40;23.70;;;7.90;99.90;;;;;;4991410;28;20057;-70
2020/12/13 06:02:49;;;;;;;49.80;23.60;;;8.00;99.90;;;;;;4990756;28;20042;-70
2020/12/13 06:05:15;;;;;;;53.20;23.08;;;7.90;99.90;;;;;;4990523;28;20041;-70
2020/12/13 06:07:49;;;;;;;52.40;24.33;;;8.00;99.90;;;;;;4990805;28;20101;-70
2020/12/13 06:10:26;;;;;;;52.13;23.85;;;7.90;99.90;;;;;;4990657;28;20121;-68
2020/12/13 06:13:04;;;;;;;53.33;24.57;;;7.80;99.90;;;;;;4989930;28;20444;-69
2020/12/13 06:15:33;;;;;;;;;;;7.90;99.90;;;;;;4991051;28;20483;-70
2020/12/13 06:18:00;;;;;;;57.17;24.50;;;7.90;99.90;;;;;;4992613;28;19902;-69
2020/12/13 06:20:27;;;;;;;47.25;22.52;;;8.00;99.90;;;;;;4990663;28;20121;-70
2020/12/13 06:22:54;;;;;;;49.85;22.42;;;7.90;99.90;;;;;;4990522;28;20118;-70
2020/12/13 06:25:21;;;;;;;49.17;23.30;;;7.90;99.90;;;;;;4990936;28;20113;-71
2020/12/13 06:27:51;;;;;;;51.42;23.42;;;7.90;99.90;;;;;;4990124;28;20039;-70
2020/12/13 06:30:18;;;;;;;48.33;23.85;;;7.80;99.90;;;;;;4992304;28;20360;-70
2020/12/13 06:32:46;;;;;;;53.80;24.67;;;7.90;99.90;;;;;;4990770;28;20067;-70
2020/12/13 06:35:12;;;;;;;;;;;7.70;99.90;;;;;;4991011;28;20097;-71
2020/12/13 06:37:38;;;;;;;48.65;22.25;;;7.80;99.90;;;;;;4989018;28;20004;-69
2020/12/13 06:40:06;;;;;;;52.75;22.38;;;7.90;99.90;;;;;;4990454;28;20121;-70
2020/12/13 06:42:39;;;;;;;47.63;22.55;;;7.80;99.90;;;;;;4990455;28;20033;-71
2020/12/13 06:45:11;;;;;;;49.65;22.67;;;7.80;99.90;;;;;;4991975;28;20397;-70
2020/12/13 06:47:42;;;;;;;52.35;22.55;;;7.80;99.90;;;;;;4990316;28;20412;-69
2020/12/13 06:50:10;;;;;;;47.30;22.17;;;7.80;99.90;;;;;;4990332;28;20034;-70
2020/12/13 06:52:36;;;;;;;49.20;21.63;;;7.80;99.90;;;;;;4990240;28;20035;-69
2020/12/13 06:55:04;;;;;;;47.15;22.35;;;7.80;99.90;;;;;;4990253;28;20045;-70
2020/12/13 06:57:31;;;;;;;47.60;23.15;;;7.80;99.90;;;;;;4992177;28;20022;-70
2020/12/13 06:59:57;;;;;;;43.97;21.92;;;7.80;99.90;;;;;;4995515;28;20034;-71
2020/12/13 07:02:54;;;;;;;48.25;22.58;;;7.90;99.90;;;;;;4993961;28;20380;-70
2020/12/13 07:05:19;;;;;;;59.03;22.88;;;7.90;99.90;;;;;;4994183;28;20042;-71
2020/12/13 07:07:52;;;;;;;47.60;21.60;;;7.90;99.90;;;;;;4993659;28;20049;-70
2020/12/13 07:10:17;;;;;;;48.33;21.50;;;7.90;99.90;;;;;;4993772;28;20030;-69
2020/12/13 07:12:55;;;;;;;51.97;22.52;;;7.90;99.90;;;;;;4993718;28;20407;-70
2020/12/13 07:15:28;;;;;;;47.63;21.73;;;7.90;99.90;;;;;;4995249;28;20026;-70
2020/12/13 07:17:56;;;;;;;43.30;21.40;;;7.90;99.90;;;;;;4993849;28;20105;-70
2020/12/13 07:20:22;;;;;;;45.47;21.63;;;7.90;99.90;;;;;;4993527;28;20481;-70
2020/12/13 07:22:48;;;;;;;49.47;22.88;;;7.90;99.90;;;;;;4993448;28;20034;-70
2020/12/13 07:25:13;;;;;;;46.85;21.50;;;7.80;99.90;;;;;;4993323;28;20189;-70
2020/12/13 07:27:41;;;;;;;52.10;22.10;;;7.90;99.90;;;;;;4992863;28;20463;-70
2020/12/13 07:30:12;;;;;;;54.05;23.67;;;8.00;99.90;;;;;;4995025;28;20097;-72
2020/12/13 07:32:38;;;;;;;41.60;20.73;;;7.90;99.90;;;;;;4992278;28;20364;-71
2020/12/13 07:35:10;;;;;;;51.45;22.48;;;7.90;99.90;;;;;;4993183;28;20448;-70
2020/12/13 07:37:36;;;;;;;48.65;22.92;;;8.00;99.90;;;;;;4993199;28;20049;-71
2020/12/13 07:40:12;;;;;;;47.45;21.55;;;8.00;99.90;;;;;;4991675;28;20047;-72
2020/12/13 07:42:38;;;;;;;45.40;21.30;;;8.00;99.90;;;;;;4992473;28;20022;-70
2020/12/13 07:45:04;;;;;;;48.80;21.90;;;8.10;99.90;;;;;;4994518;28;20023;-71
2020/12/13 07:47:30;;;;;;;41.45;19.75;;;8.20;99.90;;;;;;4991852;28;20528;-70
2020/12/13 07:50:04;;;;;;;49.72;21.08;;;8.20;99.90;;;;;;4991833;28;20118;-70
2020/12/13 07:52:29;;;;;;;46.38;21.75;;;8.10;99.90;;;;;;4992719;28;20046;-70
2020/12/13 07:55:04;;;;;;;47.88;20.77;;;8.10;99.90;;;;;;4992617;28;20034;-72
2020/12/13 07:57:30;;;;;;;43.03;21.23;;;8.10;99.90;;;;;;4992523;28;20129;-69
2020/12/13 07:59:56;;;;;;;45.30;21.38;;;8.20;99.90;;;;;;4994334;28;20419;-68
2020/12/13 08:02:22;;;;;;;46.72;20.52;;;8.20;99.90;;;;;;4992462;28;20035;-68
2020/12/13 08:04:50;;;;;;;44.55;20.08;;;8.20;99.90;;;;;;4992596;28;20130;-70
2020/12/13 08:07:16;;;;;;;46.42;20.67;;;8.20;99.90;;;;;;4992427;28;20093;-71
2020/12/13 08:09:42;;;;;;;45.03;21.42;;;8.20;99.90;;;;;;4992585;28;22415;-70
2020/12/13 08:12:09;;;;;;;48.75;21.38;;;8.30;99.90;;;;;;4994152;28;20037;-70
2020/12/13 08:14:35;;;;;;;40.80;19.45;;;8.30;99.90;;;;;;4992441;28;20516;-70
2020/12/13 08:17:00;;;;;;;39.90;18.98;;;8.30;99.90;;;;;;4992444;28;20129;-69
2020/12/13 08:19:33;;;;;;;44.78;19.73;;;8.30;99.90;;;;;;4990977;28;20134;-68
2020/12/13 08:22:07;;;;;;;41.88;20.00;;;8.30;99.90;;;;;;4992271;28;20352;-69
2020/12/13 08:24:33;;;;;;;56.58;24.77;;;8.30;99.90;;;;;;4991322;28;20540;-70
2020/12/13 08:27:01;;;;;;;49.10;22.13;;;8.30;99.90;;;;;;4993645;28;20109;-72
2020/12/13 08:29:31;;;;;;;47.92;19.90;;;8.30;99.90;;;;;;4992220;28;20030;-69
2020/12/13 08:31:57;;;;;;;45.47;21.52;;;8.30;99.90;;;;;;4992180;28;20069;-73
2020/12/13 08:34:25;;;;;;;52.15;22.48;;;8.30;99.90;;;;;;4992191;28;20369;-70
2020/12/13 08:36:52;;;;;;;39.72;20.23;;;8.40;99.90;;;;;;4992206;28;20039;-70
2020/12/13 08:39:25;;;;;;;42.35;21.70;;;8.40;99.90;;;;;;4993444;28;20038;-70
2020/12/13 08:41:51;;;;;;;42.80;20.52;;;8.40;99.90;;;;;;4992020;28;20038;-69
2020/12/13 08:44:42;;;;;;;51.38;20.48;;;8.60;99.90;;;;;;4991675;28;20034;-69
2020/12/13 08:47:11;;;;;;;49.55;22.02;;;8.60;99.90;;;;;;4987131;28;20084;-73
2020/12/13 08:49:39;;;;;;;42.97;20.85;;;8.50;99.90;;;;;;4991828;28;20073;-70
2020/12/13 08:52:27;;;;;;;47.40;21.13;;;8.60;99.90;;;;;;4991917;28;20089;-71
2020/12/13 08:54:57;;;;;;;47.67;20.77;;;8.60;99.90;;;;;;4991694;28;20042;-70
2020/12/13 08:57:29;;;;;;;44.05;20.80;;;8.60;99.90;;;;;;4991945;28;20034;-72
2020/12/13 09:00:08;;;;;;;44.10;20.58;;;8.60;99.90;;;;;;4993061;28;20022;-70
2020/12/13 09:02:34;;;;;;;51.70;22.10;;;8.60;99.90;;;;;;4991699;28;20043;-72
2020/12/13 09:05:01;;;;;;;50.95;21.20;;;8.70;99.90;;;;;;4991318;28;20056;-71
2020/12/13 09:07:31;;;;;;;49.88;21.05;;;8.70;99.90;;;;;;4991533;28;20046;-72
2020/12/13 09:10:10;;;;;;;52.08;22.27;;;8.70;99.90;;;;;;4991413;28;20349;-69
2020/12/13 09:12:37;;;;;;;46.30;19.92;;;8.70;99.90;;;;;;4991336;28;20028;-70
2020/12/13 09:15:15;;;;;;;48.67;20.70;;;8.80;99.90;;;;;;4992625;28;20030;-69
2020/12/13 09:17:50;;;;;;;44.53;20.02;;;8.70;99.90;;;;;;4991083;28;20463;-69
2020/12/13 09:20:28;;;;;;;47.13;20.52;;;8.80;99.90;;;;;;4990336;28;20107;-68
2020/12/13 09:23:00;;;;;;;;;;;8.70;99.90;;;;;;4991894;28;20034;-69
2020/12/13 09:25:26;;;;;;;49.97;20.08;;;8.80;99.90;;;;;;4991360;28;19996;-69
2020/12/13 09:27:59;;;;;;;47.53;21.98;;;8.90;99.90;;;;;;4990961;28;20117;-69
2020/12/13 09:30:24;;;;;;;45.00;19.50;;;8.90;99.90;;;;;;4990960;28;20030;-70
2020/12/13 09:32:50;;;;;;;51.20;21.67;;;8.90;99.90;;;;;;4992956;28;20026;-70
2020/12/13 09:35:15;;;;;;;49.08;20.17;;;8.90;99.90;;;;;;4991176;28;20076;-69
2020/12/13 09:37:41;;;;;;;44.58;20.92;;;8.90;99.90;;;;;;4990987;28;20085;-70
2020/12/13 09:40:07;;;;;;;50.38;21.88;;;8.90;99.90;;;;;;4991190;28;20125;-69
2020/12/13 09:42:32;;;;;;;49.47;21.38;;;8.90;99.90;;;;;;4991045;28;20038;-71
2020/12/13 09:44:58;;;;;;;48.42;22.08;;;8.90;99.90;;;;;;4996471;28;20022;-70
2020/12/13 09:47:24;;;;;;;46.38;20.95;;;8.90;99.90;;;;;;4990975;28;20034;-69
2020/12/13 09:49:49;;;;;;;46.80;21.88;;;8.90;99.90;;;;;;4990623;28;20041;-68
2020/12/13 09:52:15;;;;;;;44.90;20.25;;;9.00;99.90;;;;;;4990855;28;20448;-69
2020/12/13 09:54:40;;;;;;;55.95;22.85;;;9.00;99.90;;;;;;4990795;28;20055;-68
2020/12/13 09:57:06;;;;;;;52.53;22.35;;;9.10;99.90;;;;;;4991062;28;20100;-69
2020/12/13 09:59:32;;;;;;;54.05;22.48;;;9.10;99.90;;;;;;4990920;28;20058;-69
2020/12/13 10:01:58;;;;;;;48.88;21.95;;;9.10;99.90;;;;;;4989489;28;20117;-68
2020/12/13 10:04:24;;;;;;;48.20;20.50;;;9.10;99.90;;;;;;4990651;28;20099;-69
2020/12/13 10:09:46;;;;;;;50.80;22.30;;;9.20;99.90;;;;;;4954780;28;20154;-68
2020/12/13 10:12:11;;;;;;;50.40;20.02;;;9.20;99.90;;;;;;4992121;28;20109;-70
2020/12/13 10:14:37;;;;;;;49.72;21.15;;;9.30;99.90;;;;;;4990831;28;20046;-69
2020/12/13 10:17:03;;;;;;;52.33;22.33;;;9.30;99.90;;;;;;4990748;28;20480;-68
2020/12/13 10:19:29;;;;;;;48.85;20.60;;;9.40;99.90;;;;;;4990882;28;20357;-68
2020/12/13 10:21:55;;;;;;;50.03;20.30;;;9.40;99.90;;;;;;4990674;28;20034;-68
2020/12/13 10:24:21;;;;;;;53.03;22.90;;;9.50;99.90;;;;;;4992007;28;20058;-68
2020/12/13 10:26:46;;;;;;;49.63;21.88;;;9.50;99.90;;;;;;4990478;28;20031;-70
2020/12/13 10:29:13;;;;;;;50.83;20.73;;;9.60;99.90;;;;;;4988695;28;20554;-68
2020/12/13 10:31:45;;;;;;;48.50;20.63;;;9.50;99.90;;;;;;4991084;28;20468;-70
2020/12/13 10:34:12;;;;;;;53.30;22.85;;;9.60;99.90;;;;;;4994279;28;20376;-69
2020/12/13 10:36:39;;;;;;;54.35;22.50;;;9.70;99.90;;;;;;4994255;28;20118;-69
2020/12/13 10:39:06;;;;;;;52.15;21.63;;;9.80;99.90;;;;;;4995968;28;20413;-68
2020/12/13 10:41:32;;;;;;;57.97;22.65;;;9.80;99.90;;;;;;4994134;28;20046;-68
2020/12/13 10:43:59;;;;;;;50.47;21.48;;;10.00;99.90;;;;;;4994516;28;20100;-69
2020/12/13 10:46:24;;;;;;;51.33;21.85;;;10.00;99.90;;;;;;4993008;28;20034;-68
2020/12/13 10:48:50;;;;;;;51.42;21.95;;;10.10;99.90;;;;;;4993798;28;20038;-68
2020/12/13 10:51:17;;;;;;;52.67;21.63;;;10.10;99.90;;;;;;4995442;28;20444;-68
2020/12/13 10:53:43;;;;;;;64.20;24.10;;;10.10;99.90;;;;;;4994140;28;20105;-67
2020/12/13 10:56:09;;;;;;;59.25;22.95;;;10.10;99.90;;;;;;4992755;28;20030;-69
2020/12/13 10:58:35;;;;;;;73.38;23.90;;;10.10;99.90;;;;;;4993570;28;20038;-68
2020/12/13 11:01:01;;;;;;;60.85;23.80;;;10.00;99.90;;;;;;4993821;28;20046;-68
2020/12/13 11:03:28;;;;;;;56.83;22.63;;;10.20;99.90;;;;;;4993535;28;20463;-68
2020/12/13 11:05:54;;;;;;;65.32;24.77;;;10.30;99.90;;;;;;4994844;28;20464;-69
2020/12/13 11:08:20;;;;;;;59.33;23.90;;;10.30;99.90;;;;;;4993599;28;20070;-69
2020/12/13 11:10:46;;;;;;;63.97;24.73;;;10.40;99.90;;;;;;4993779;28;20073;-73
2020/12/13 11:13:13;;;;;;;58.90;23.83;;;10.30;99.90;;;;;;4993545;28;20472;-71
2020/12/13 11:15:39;;;;;;;66.78;24.95;;;10.30;99.90;;;;;;4993729;28;20033;-71
2020/12/13 11:18:05;;;;;;;61.60;24.13;;;10.60;99.90;;;;;;4994937;28;20060;-68
2020/12/13 11:20:31;;;;;;;57.15;22.98;;;10.50;99.90;;;;;;4993324;28;20429;-72
2020/12/13 11:22:56;;;;;;;61.33;23.60;;;10.40;99.90;;;;;;4993324;28;20129;-73
2020/12/13 11:25:22;;;;;;;66.40;22.90;;;10.60;99.90;;;;;;4993500;28;20483;-72
2020/12/13 11:27:47;;;;;;;60.08;23.90;;;10.60;99.90;;;;;;4993325;28;20045;-71
2020/12/13 11:30:13;;;;;;;53.60;22.00;;;10.60;99.90;;;;;;4994660;28;20033;-69
2020/12/13 11:32:40;;;;;;;61.17;24.38;;;10.60;99.90;;;;;;4993150;28;20042;-68
2020/12/13 11:35:06;;;;;;;49.78;22.88;;;10.70;99.90;;;;;;4993201;28;20046;-67
2020/12/13 11:37:32;;;;;;;57.30;23.70;;;10.60;99.90;;;;;;4993052;28;20117;-68
2020/12/13 11:39:58;;;;;;;52.40;22.25;;;10.60;99.90;;;;;;4993207;28;20049;-67
2020/12/13 11:42:24;;;;;;;57.08;23.48;;;10.70;99.90;;;;;;4991946;28;20030;-67
2020/12/13 11:44:50;;;;;;;55.22;23.60;;;10.60;99.90;;;;;;4993901;28;20019;-66
2020/12/13 11:47:16;;;;;;;51.08;22.50;;;10.70;99.90;;;;;;4992789;28;20096;-67
2020/12/13 11:50:18;;;;;;;55.90;23.20;;;10.80;99.90;;;;;;4993234;28;20050;-69
2020/12/13 11:52:44;;;;;;;60.42;23.55;;;10.80;99.90;;;;;;4992694;28;20468;-68
2020/12/13 11:55:09;;;;;;;52.85;22.92;;;10.70;99.90;;;;;;4991724;28;20033;-68
2020/12/13 11:57:35;;;;;;;60.60;24.65;;;10.80;99.90;;;;;;4993004;28;20085;-69
2020/12/13 12:00:01;;;;;;;55.67;23.73;;;10.80;99.90;;;;;;4994239;28;20034;-68
2020/12/13 12:02:26;;;;;;;58.47;23.42;;;10.80;99.90;;;;;;4992759;28;20431;-69
2020/12/13 12:04:52;;;;;;;56.63;23.58;;;10.90;99.90;;;;;;4992631;28;20053;-70
2020/12/13 12:07:18;;;;;;;50.33;23.08;;;10.80;99.90;;;;;;4992171;28;20421;-78
2020/12/13 12:09:43;;;;;;;54.05;22.73;;;10.90;99.90;;;;;;4992299;28;20042;-74
2020/12/13 12:12:09;;;;;;;50.97;23.40;;;10.90;99.90;;;;;;4993974;28;20077;-72
2020/12/13 12:14:35;;;;;;;58.72;25.17;;;10.90;99.90;;;;;;4990992;28;20038;-73
2020/12/13 12:17:03;;;;;;;53.13;23.25;;;10.90;99.90;;;;;;4992345;28;20042;-72
2020/12/13 12:19:31;;;;;;;56.47;23.73;;;11.00;99.90;;;;;;4992606;28;20475;-71
2020/12/13 12:21:56;;;;;;;59.88;23.65;;;10.90;99.90;;;;;;4992075;28;20030;-72
2020/12/13 12:24:22;;;;;;;55.47;23.55;;;11.00;99.90;;;;;;4992192;28;20030;-73
2020/12/13 12:26:51;;;;;;;57.13;23.73;;;11.00;99.90;;;;;;4993698;28;20026;-74
2020/12/13 12:29:18;;;;;;;60.60;23.48;;;11.00;99.90;;;;;;4992057;28;20042;-73
2020/12/13 12:31:45;;;;;;;61.75;23.40;;;10.90;99.90;;;;;;4992079;28;20034;-75
2020/12/13 12:34:11;;;;;;;52.38;22.63;;;11.00;99.90;;;;;;4992398;28;20026;-75
2020/12/13 12:36:37;;;;;;;60.25;22.92;;;10.90;99.90;;;;;;4992115;28;20330;-72
2020/12/13 12:39:03;;;;;;;57.45;23.75;;;11.00;99.90;;;;;;4993572;28;20325;-71
2020/12/13 12:41:30;;;;;;;58.60;24.33;;;11.00;99.90;;;;;;4991909;28;20035;-71
2020/12/13 12:43:56;;;;;;;50.97;22.40;;;11.10;99.90;;;;;;4991950;28;20086;-86
2020/12/13 12:46:21;;;;;;;52.00;21.40;;;11.10;99.90;;;;;;4991701;28;20053;-77
2020/12/13 12:48:47;;;;;;;53.25;22.52;;;11.10;99.90;;;;;;4991853;28;20030;-71